Kensington, Minnesota
Current Conditions -  °F | °C
As of 11:53 PM on Friday 24 Oct 2014 (Local Time) from KAXN Reporting Station
Few Clouds Few Clouds  
Wind Chill: 59°   Ceiling: Unl
Heat Index: 59°   Visibility: 10mi
Dew Point: 33°   Wind: 13mph
Humidity: 38%   Direction: 310°NW
Pressure: 29.94"   Gusts: NA
Location:  45.78°N, 95.7°W
Report Text: KAXN 250453Z AUTO 31011KT 10SM FEW110 15/01 A2994 RMK AO2 SLP141 T01500006
Loading
Personal Weather Stations






























Interactive Weather Map New forecast layout! Learn more

10-Day Weather Forecast

Advertisements
Track Severe Weather on mobile